Academy, Texas
Current Conditions -  °F | °C
As of 5:55 PM on Monday 22 Dec 2014 (Local Time) from KTPL Reporting Station
Clear Clear  
Wind Chill: 16°   Ceiling: Unl
Heat Index: 16°   Visibility: 10mi
Dew Point:   Wind: 6mph
Humidity: 42%   Direction: 330°NNW
Pressure: 29.63"   Gusts: NA
Location:  30.9809°N, 97.3415°W
Report Text: KTPL 222355Z AUTO 33005KT 10SM CLR 16/03 A2963 RMK AO1 10220 20160 52017
Loading
Personal Weather Stations






























Interactive Weather Map New forecast layout! Learn more

10-Day Weather Forecast

Advertisements
Track Severe Weather on mobile